createdAt,value
2023-01-06T00:01:20.025Z,5.30
2023-01-06T00:03:52.423Z,4.40
2023-01-06T00:06:27.471Z,6.80
2023-01-06T00:09:00.790Z,6.10
2023-01-06T00:11:28.010Z,3.00
2023-01-06T00:13:56.528Z,6.40
2023-01-06T00:16:24.138Z,5.70
2023-01-06T00:18:58.933Z,4.90
2023-01-06T00:21:26.380Z,5.30
2023-01-06T00:23:54.049Z,5.40
2023-01-06T00:26:21.332Z,4.00
2023-01-06T00:28:48.827Z,6.40
2023-01-06T00:31:17.328Z,4.20
2023-01-06T00:33:44.945Z,4.90
2023-01-06T00:36:13.817Z,7.30
2023-01-06T00:38:42.505Z,6.10
2023-01-06T00:41:30.700Z,4.40
2023-01-06T00:43:59.290Z,5.00
2023-01-06T00:46:29.728Z,3.70
2023-01-06T00:49:05.064Z,4.70
2023-01-06T00:51:38.999Z,3.50
2023-01-06T00:54:11.234Z,5.10
2023-01-06T00:56:46.272Z,7.10
2023-01-06T00:59:16.840Z,6.50
2023-01-06T01:01:44.879Z,5.70
2023-01-06T01:04:14.423Z,4.30
2023-01-06T01:06:44.062Z,4.60
2023-01-06T01:09:22.232Z,5.50
2023-01-06T01:12:09.003Z,4.70
2023-01-06T01:14:38.414Z,4.30
2023-01-06T01:17:05.706Z,4.30
2023-01-06T01:19:33.368Z,4.70
2023-01-06T01:22:01.025Z,5.10
2023-01-06T01:24:27.993Z,3.80
2023-01-06T01:26:54.954Z,4.80
2023-01-06T01:29:21.955Z,4.60
2023-01-06T01:31:50.044Z,3.80
2023-01-06T01:34:17.889Z,4.00
2023-01-06T01:36:48.345Z,5.40
2023-01-06T01:39:18.822Z,7.00
2023-01-06T01:41:46.750Z,5.10
2023-01-06T01:44:54.506Z,5.40
2023-01-06T01:47:29.181Z,2.90
2023-01-06T01:50:03.658Z,4.70
2023-01-06T01:52:32.423Z,4.50
2023-01-06T01:55:00.838Z,6.50
2023-01-06T01:57:58.154Z,3.80
2023-01-06T02:00:25.873Z,4.80
2023-01-06T02:02:53.873Z,2.70
2023-01-06T02:05:24.900Z,4.50
2023-01-06T02:07:53.212Z,5.40
2023-01-06T02:10:22.817Z,3.70
2023-01-06T02:12:56.255Z,5.80
2023-01-06T02:15:28.393Z,6.30
2023-01-06T02:18:16.262Z,5.40
2023-01-06T02:21:08.060Z,6.80
2023-01-06T02:24:35.193Z,5.80
2023-01-06T02:27:40.094Z,4.70
2023-01-06T02:30:31.172Z,5.60
2023-01-06T02:33:05.737Z,5.70
2023-01-06T02:35:51.135Z,6.50
2023-01-06T02:38:40.021Z,7.00
2023-01-06T02:41:27.129Z,5.50
2023-01-06T02:44:15.442Z,5.60
2023-01-06T02:47:17.517Z,6.60
2023-01-06T02:49:57.459Z,6.40
2023-01-06T02:52:41.040Z,6.80
2023-01-06T02:55:18.991Z,4.40
2023-01-06T02:58:02.081Z,5.20
2023-01-06T03:00:42.621Z,6.60
2023-01-06T03:03:21.384Z,4.30
2023-01-06T03:05:58.672Z,4.20
2023-01-06T03:08:29.379Z,5.50
2023-01-06T03:10:58.215Z,6.20
2023-01-06T03:13:50.199Z,5.70
2023-01-06T03:16:18.324Z,4.80
2023-01-06T03:18:48.394Z,5.20
2023-01-06T03:21:20.601Z,5.10
2023-01-06T03:23:47.687Z,3.80
2023-01-06T03:26:15.551Z,4.50
2023-01-06T03:28:43.002Z,6.80
2023-01-06T03:31:36.733Z,5.10
2023-01-06T03:34:17.992Z,5.70
2023-01-06T03:36:44.870Z,6.20
2023-01-06T03:39:19.193Z,6.80
2023-01-06T03:42:31.472Z,6.70
2023-01-06T03:45:28.993Z,4.60
2023-01-06T03:48:14.020Z,7.10
2023-01-06T03:51:01.159Z,5.60
2023-01-06T03:53:37.580Z,5.10
2023-01-06T03:56:17.005Z,9.40
2023-01-06T03:58:46.918Z,6.40
2023-01-06T04:01:15.638Z,6.40
2023-01-06T04:03:46.868Z,8.80
2023-01-06T04:06:14.266Z,7.80
2023-01-06T04:08:41.205Z,4.60
2023-01-06T04:11:08.535Z,5.80
2023-01-06T04:13:35.740Z,4.80
2023-01-06T04:16:02.772Z,6.20
2023-01-06T04:18:30.093Z,8.10
2023-01-06T04:20:57.906Z,8.60
2023-01-06T04:23:27.451Z,7.10
2023-01-06T04:25:54.344Z,6.80
2023-01-06T04:28:34.385Z,8.10
2023-01-06T04:31:02.408Z,5.70
2023-01-06T04:33:31.371Z,7.80
2023-01-06T04:36:00.408Z,8.70
2023-01-06T04:38:27.800Z,5.70
2023-01-06T04:40:54.662Z,7.40
2023-01-06T04:43:21.643Z,9.50
2023-01-06T04:45:48.538Z,8.90
2023-01-06T04:48:15.469Z,6.50
2023-01-06T04:50:42.393Z,7.80
2023-01-06T04:53:12.149Z,6.40
2023-01-06T04:55:40.100Z,5.20
2023-01-06T04:58:07.501Z,5.60
2023-01-06T05:00:34.561Z,7.30
2023-01-06T05:03:01.434Z,6.70
2023-01-06T05:05:28.338Z,6.60
2023-01-06T05:07:55.773Z,6.70
2023-01-06T05:10:22.964Z,6.00
2023-01-06T05:12:49.826Z,5.80
2023-01-06T05:15:16.781Z,5.40
2023-01-06T05:17:43.746Z,6.80
2023-01-06T05:20:11.007Z,6.90
2023-01-06T05:22:37.999Z,9.10
2023-01-06T05:25:05.448Z,6.60
2023-01-06T05:27:32.466Z,8.10
2023-01-06T05:29:59.325Z,8.80
2023-01-06T05:32:26.323Z,5.90
2023-01-06T05:34:53.169Z,7.20
2023-01-06T05:37:20.062Z,6.40
2023-01-06T05:39:46.932Z,5.80
2023-01-06T05:42:17.688Z,7.50
2023-01-06T05:44:44.579Z,6.90
2023-01-06T05:47:11.487Z,7.40
2023-01-06T05:49:38.389Z,6.90
2023-01-06T05:52:05.276Z,7.20
2023-01-06T05:54:32.198Z,10.20
2023-01-06T05:56:59.093Z,9.90
2023-01-06T05:59:25.921Z,13.10
2023-01-06T06:01:53.194Z,13.40
2023-01-06T06:04:20.588Z,12.60
2023-01-06T06:06:47.450Z,11.10
2023-01-06T06:09:14.362Z,11.90
2023-01-06T06:11:41.212Z,11.90
2023-01-06T06:14:10.777Z,11.60
2023-01-06T06:16:37.755Z,14.60
2023-01-06T06:19:04.676Z,9.70
2023-01-06T06:21:31.971Z,10.10
2023-01-06T06:24:00.243Z,9.40
2023-01-06T06:26:27.670Z,9.80
2023-01-06T06:28:55.030Z,10.60
2023-01-06T06:31:28.761Z,10.60
2023-01-06T06:33:59.212Z,7.10
2023-01-06T06:36:27.224Z,11.30
2023-01-06T06:38:55.522Z,11.00
2023-01-06T06:41:25.080Z,15.00
2023-01-06T06:43:52.931Z,11.80
2023-01-06T06:46:21.125Z,11.00
2023-01-06T06:48:50.238Z,9.60
2023-01-06T06:51:21.001Z,11.10
2023-01-06T06:53:48.583Z,10.80
2023-01-06T06:56:17.481Z,10.70
2023-01-06T06:58:45.111Z,8.60
2023-01-06T07:01:18.367Z,10.20
2023-01-06T07:03:45.449Z,10.20
2023-01-06T07:06:16.508Z,12.00
2023-01-06T07:08:45.314Z,9.50
2023-01-06T07:11:12.808Z,11.30
2023-01-06T07:13:39.796Z,8.10
2023-01-06T07:16:07.450Z,11.10
2023-01-06T07:18:34.397Z,14.00
2023-01-06T07:21:01.322Z,13.00
2023-01-06T07:23:28.302Z,14.20
2023-01-06T07:25:58.231Z,11.60
2023-01-06T07:28:27.105Z,12.40
2023-01-06T07:30:54.559Z,10.50
2023-01-06T07:33:21.931Z,13.60
2023-01-06T07:35:54.072Z,10.60
2023-01-06T07:38:21.582Z,11.90
2023-01-06T07:40:48.979Z,10.70
2023-01-06T07:43:17.124Z,12.70
2023-01-06T07:45:47.812Z,11.60
2023-01-06T07:48:15.076Z,9.70
2023-01-06T07:50:42.094Z,8.80
2023-01-06T07:53:09.753Z,10.10
2023-01-06T07:55:37.041Z,8.40
2023-01-06T07:58:10.685Z,9.80
2023-01-06T08:00:38.176Z,10.60
2023-01-06T08:03:07.193Z,8.50
2023-01-06T08:05:43.632Z,8.90
2023-01-06T08:08:11.961Z,9.80
2023-01-06T08:10:40.964Z,9.60
2023-01-06T08:13:09.236Z,9.60
2023-01-06T08:15:37.788Z,9.10
2023-01-06T08:18:04.863Z,9.00
2023-01-06T08:20:31.923Z,10.30
2023-01-06T08:22:58.815Z,11.40
2023-01-06T08:25:26.561Z,12.10
2023-01-06T08:27:53.451Z,10.70
2023-01-06T08:30:21.945Z,10.00
2023-01-06T08:32:49.558Z,10.60
2023-01-06T08:35:16.856Z,8.80
2023-01-06T08:37:43.765Z,10.30
2023-01-06T08:40:11.257Z,11.70
2023-01-06T08:42:38.151Z,10.70
2023-01-06T08:45:05.726Z,8.50
2023-01-06T08:47:32.628Z,10.00
2023-01-06T08:49:59.539Z,11.20
2023-01-06T08:52:26.465Z,11.60
2023-01-06T08:54:53.368Z,12.40
2023-01-06T08:57:20.300Z,11.60
2023-01-06T08:59:47.262Z,11.90
2023-01-06T09:02:14.276Z,7.20
2023-01-06T09:04:41.457Z,12.80
2023-01-06T09:07:08.423Z,12.30
2023-01-06T09:09:35.398Z,11.70
2023-01-06T09:12:02.316Z,10.50
2023-01-06T09:14:29.901Z,11.20
2023-01-06T09:16:56.908Z,5.50
2023-01-06T09:19:23.792Z,8.10
2023-01-06T09:21:50.694Z,5.10
2023-01-06T09:24:17.657Z,7.60
2023-01-06T09:26:44.653Z,6.80
2023-01-06T09:29:11.573Z,7.50
2023-01-06T09:31:38.458Z,7.30
2023-01-06T09:34:05.470Z,4.20
2023-01-06T09:36:34.619Z,5.60
2023-01-06T09:39:01.511Z,8.50
2023-01-06T09:41:56.554Z,8.70
2023-01-06T09:44:30.869Z,4.50
2023-01-06T09:47:00.660Z,12.10
2023-01-06T09:50:04.885Z,13.70
2023-01-06T09:52:46.968Z,12.70
2023-01-06T09:55:33.128Z,9.20
2023-01-06T09:58:13.046Z,7.80
2023-01-06T10:00:55.106Z,7.90
2023-01-06T10:03:25.985Z,8.00
2023-01-06T10:06:33.482Z,10.80
2023-01-06T10:09:07.071Z,9.70
2023-01-06T10:11:58.624Z,7.90
2023-01-06T10:14:33.618Z,8.80
2023-01-06T10:17:28.300Z,10.00
2023-01-06T10:20:04.487Z,10.30
2023-01-06T10:22:55.595Z,12.50
2023-01-06T10:25:35.542Z,10.00
2023-01-06T10:28:24.461Z,10.20
2023-01-06T10:30:54.223Z,4.10
2023-01-06T10:33:29.309Z,9.90
2023-01-06T10:35:58.638Z,9.30
2023-01-06T10:38:41.090Z,7.00
2023-01-06T10:41:20.142Z,9.40
2023-01-06T10:43:47.076Z,6.20
2023-01-06T10:46:16.373Z,7.80
2023-01-06T10:48:44.264Z,8.20
2023-01-06T10:51:39.749Z,6.80
2023-01-06T10:54:18.956Z,8.50
2023-01-06T10:57:00.596Z,10.10
2023-01-06T10:59:29.296Z,9.50
2023-01-06T11:01:57.959Z,9.70
2023-01-06T11:04:28.030Z,7.80
2023-01-06T11:06:59.453Z,10.00
2023-01-06T11:09:32.189Z,7.60
2023-01-06T11:12:10.715Z,8.20
2023-01-06T11:14:38.095Z,8.20
2023-01-06T11:17:14.688Z,5.70
2023-01-06T11:19:44.634Z,8.50
2023-01-06T11:22:39.011Z,8.30
2023-01-06T11:25:21.167Z,9.80
2023-01-06T11:28:07.686Z,8.00
2023-01-06T11:30:39.840Z,7.40
2023-01-06T11:33:17.804Z,10.60
2023-01-06T11:35:44.953Z,7.60
2023-01-06T11:38:17.320Z,10.20
2023-01-06T11:40:48.745Z,8.90
2023-01-06T11:43:20.630Z,9.80
2023-01-06T11:45:54.214Z,11.10
2023-01-06T11:48:27.821Z,8.80
2023-01-06T11:50:58.223Z,11.20
2023-01-06T11:53:26.389Z,9.30
2023-01-06T11:56:06.462Z,11.90
2023-01-06T11:58:52.054Z,10.20
2023-01-06T12:01:26.982Z,9.80
2023-01-06T12:04:06.614Z,9.20
2023-01-06T12:06:40.977Z,8.90
2023-01-06T12:09:29.634Z,9.60
2023-01-06T12:11:59.544Z,9.20
2023-01-06T12:14:35.947Z,10.30
2023-01-06T12:17:33.418Z,12.00
2023-01-06T12:20:33.559Z,10.70
2023-01-06T12:23:08.214Z,10.50
2023-01-06T12:25:49.116Z,9.80
2023-01-06T12:28:21.918Z,10.30
2023-01-06T12:30:51.197Z,11.10
2023-01-06T12:33:27.156Z,10.10
2023-01-06T12:35:58.700Z,10.80
2023-01-06T12:38:39.503Z,10.00
2023-01-06T12:41:23.792Z,9.80
2023-01-06T12:44:00.829Z,12.50
2023-01-06T12:46:36.329Z,12.20
2023-01-06T12:49:38.944Z,17.30
2023-01-06T12:52:13.734Z,13.40
2023-01-06T12:54:40.762Z,15.20
2023-01-06T12:57:41.543Z,13.00
2023-01-06T13:00:29.652Z,13.90
2023-01-06T13:03:20.752Z,14.10
2023-01-06T13:06:29.261Z,11.90
2023-01-06T13:09:21.525Z,16.20
2023-01-06T13:12:21.358Z,15.30
2023-01-06T13:14:56.826Z,11.30
2023-01-06T13:17:41.894Z,16.80
2023-01-06T13:20:24.300Z,12.40
2023-01-06T13:23:16.211Z,13.10
2023-01-06T13:26:13.937Z,15.30
2023-01-06T13:29:18.543Z,14.70
2023-01-06T13:32:03.629Z,15.40
2023-01-06T13:34:33.048Z,13.40
2023-01-06T13:37:33.792Z,16.40
2023-01-06T13:40:09.940Z,17.60
2023-01-06T13:42:45.287Z,12.00
2023-01-06T13:45:31.094Z,22.30
2023-01-06T13:48:00.940Z,12.80
2023-01-06T13:50:28.879Z,15.60
2023-01-06T13:52:56.352Z,13.80
2023-01-06T13:55:29.180Z,14.00
2023-01-06T13:57:57.490Z,20.50
2023-01-06T14:00:29.195Z,16.00
2023-01-06T14:02:56.080Z,13.20
2023-01-06T14:05:22.970Z,10.50
2023-01-06T14:07:56.214Z,12.40
2023-01-06T14:10:42.684Z,11.90
2023-01-06T14:13:24.730Z,12.70
2023-01-06T14:16:11.188Z,10.20
2023-01-06T14:18:52.257Z,17.60
2023-01-06T14:21:28.956Z,19.90
2023-01-06T14:24:06.555Z,19.60
2023-01-06T14:27:02.678Z,16.00
2023-01-06T14:29:45.142Z,18.00
2023-01-06T14:32:15.380Z,15.00
2023-01-06T14:34:51.992Z,18.20
2023-01-06T14:37:24.615Z,20.60
2023-01-06T14:39:55.611Z,10.50
2023-01-06T14:42:39.962Z,8.80
2023-01-06T14:45:17.902Z,17.50
2023-01-06T14:47:50.017Z,16.90
2023-01-06T14:50:16.817Z,21.10
2023-01-06T14:53:02.417Z,18.30
2023-01-06T14:55:35.787Z,15.70
2023-01-06T14:58:02.694Z,20.00
2023-01-06T15:00:33.468Z,16.10
2023-01-06T15:03:04.933Z,24.50
2023-01-06T15:05:38.338Z,19.60
2023-01-06T15:08:07.112Z,22.70
2023-01-06T15:10:41.146Z,27.10
2023-01-06T15:13:31.730Z,19.60
2023-01-06T15:16:27.959Z,17.00
2023-01-06T15:18:55.100Z,17.30
2023-01-06T15:21:23.868Z,19.90
2023-01-06T15:23:53.415Z,23.70
2023-01-06T15:26:27.499Z,18.60
2023-01-06T15:29:07.648Z,34.60
2023-01-06T15:31:37.586Z,29.20
2023-01-06T15:34:21.374Z,25.60
2023-01-06T15:36:52.460Z,24.00
2023-01-06T15:39:26.811Z,24.00
2023-01-06T15:41:55.785Z,27.90
2023-01-06T15:44:31.629Z,24.50
2023-01-06T15:47:37.478Z,34.40
2023-01-06T15:50:10.023Z,30.60
2023-01-06T15:52:45.025Z,28.40
2023-01-06T15:55:32.754Z,19.90
2023-01-06T15:58:03.034Z,23.70
2023-01-06T16:00:36.939Z,17.70
2023-01-06T16:03:06.082Z,27.10
2023-01-06T16:05:42.641Z,29.90
2023-01-06T16:08:25.776Z,29.00
2023-01-06T16:11:45.550Z,26.40
2023-01-06T16:14:49.532Z,26.40
2023-01-06T16:17:31.857Z,26.50
2023-01-06T16:20:06.745Z,25.40
2023-01-06T16:22:47.763Z,25.40
2023-01-06T16:25:27.091Z,16.90
2023-01-06T16:27:57.712Z,24.70
2023-01-06T16:30:30.222Z,24.50
2023-01-06T16:33:01.913Z,47.00
2023-01-06T16:35:31.937Z,52.10
2023-01-06T16:37:59.444Z,43.70
2023-01-06T16:40:29.053Z,32.20
2023-01-06T16:43:01.953Z,28.20
2023-01-06T16:45:31.508Z,30.40
2023-01-06T16:47:59.072Z,30.60
2023-01-06T16:50:26.967Z,36.90
2023-01-06T16:53:02.820Z,33.50
2023-01-06T16:55:30.015Z,22.20
2023-01-06T16:57:58.801Z,36.90
2023-01-06T17:00:25.876Z,31.40
2023-01-06T17:02:54.395Z,25.90
2023-01-06T17:05:28.777Z,34.40
2023-01-06T17:08:00.724Z,35.80
2023-01-06T17:10:28.291Z,24.90
2023-01-06T17:13:23.944Z,22.30
2023-01-06T17:16:22.082Z,32.60
2023-01-06T17:18:53.093Z,20.00
2023-01-06T17:21:24.760Z,32.00
2023-01-06T17:23:57.648Z,23.80
2023-01-06T17:26:25.295Z,44.30
2023-01-06T17:28:54.377Z,42.20
2023-01-06T17:31:47.882Z,43.60
2023-01-06T17:34:23.203Z,46.80
2023-01-06T17:36:53.637Z,47.90
2023-01-06T17:39:31.161Z,35.50
2023-01-06T17:42:07.198Z,55.80
2023-01-06T17:44:45.658Z,52.60
2023-01-06T17:47:15.610Z,52.10
2023-01-06T17:49:59.222Z,54.90
2023-01-06T17:52:36.506Z,55.60
2023-01-06T17:55:45.052Z,62.50
2023-01-06T17:58:19.871Z,57.50
2023-01-06T18:00:46.782Z,49.80
2023-01-06T18:03:20.509Z,45.60
2023-01-06T18:06:08.451Z,42.40
2023-01-06T18:08:38.360Z,44.40
2023-01-06T18:11:24.546Z,42.30
2023-01-06T18:13:52.423Z,49.00
2023-01-06T18:16:33.211Z,48.80
2023-01-06T18:19:33.678Z,54.30
2023-01-06T18:22:04.096Z,54.40
2023-01-06T18:24:37.518Z,47.60
2023-01-06T18:27:17.983Z,62.00
2023-01-06T18:29:45.341Z,51.90
2023-01-06T18:32:21.450Z,58.40
2023-01-06T18:34:57.390Z,59.60
2023-01-06T18:37:31.334Z,47.20
2023-01-06T18:40:03.038Z,78.40
2023-01-06T18:42:34.851Z,75.20
2023-01-06T18:45:07.812Z,61.50
2023-01-06T18:47:41.499Z,86.80
2023-01-06T18:50:43.515Z,81.20
2023-01-06T18:53:13.405Z,59.30
2023-01-06T18:56:02.974Z,67.90
2023-01-06T18:58:35.835Z,56.90
2023-01-06T19:01:42.119Z,48.20
2023-01-06T19:04:30.280Z,64.80
2023-01-06T19:07:02.346Z,49.00
2023-01-06T19:09:47.929Z,30.00
2023-01-06T19:12:31.825Z,28.50
2023-01-06T19:15:15.415Z,29.60
2023-01-06T19:17:43.817Z,26.70
2023-01-06T19:20:17.547Z,25.50
2023-01-06T19:22:45.629Z,23.70
2023-01-06T19:25:33.248Z,31.20
2023-01-06T19:28:12.578Z,27.00
2023-01-06T19:30:45.923Z,27.70
2023-01-06T19:33:38.220Z,25.60
2023-01-06T19:36:05.058Z,26.00
2023-01-06T19:38:38.936Z,23.80
2023-01-06T19:41:27.824Z,24.40
2023-01-06T19:44:10.071Z,19.40
2023-01-06T19:46:40.982Z,22.30
2023-01-06T19:49:19.977Z,19.80
2023-01-06T19:51:50.454Z,17.30
2023-01-06T19:54:35.556Z,19.20
2023-01-06T19:57:19.128Z,16.80
2023-01-06T19:59:46.037Z,15.70
2023-01-06T20:02:40.397Z,19.30
2023-01-06T20:05:07.818Z,17.00
2023-01-06T20:07:34.726Z,18.40
2023-01-06T20:10:01.618Z,17.20
2023-01-06T20:12:28.482Z,17.40
2023-01-06T20:14:55.361Z,17.50
2023-01-06T20:17:22.195Z,19.00
2023-01-06T20:19:49.687Z,15.70
2023-01-06T20:22:16.589Z,14.50
2023-01-06T20:24:43.471Z,16.00
2023-01-06T20:27:10.342Z,16.50
2023-01-06T20:29:37.248Z,15.40
2023-01-06T20:32:04.447Z,14.70
2023-01-06T20:34:31.350Z,14.20
2023-01-06T20:36:59.507Z,18.50
2023-01-06T20:39:26.372Z,17.90
2023-01-06T20:41:53.290Z,15.90
2023-01-06T20:44:20.133Z,14.90
2023-01-06T20:46:46.990Z,19.40
2023-01-06T20:49:13.973Z,20.20
2023-01-06T20:51:40.875Z,20.30
2023-01-06T20:54:07.850Z,18.70
2023-01-06T20:56:34.742Z,20.00
2023-01-06T20:59:01.607Z,22.90
2023-01-06T21:01:28.535Z,21.10
2023-01-06T21:03:55.504Z,23.20
2023-01-06T21:06:22.385Z,21.20
2023-01-06T21:08:49.242Z,19.40
2023-01-06T21:11:16.076Z,23.40
2023-01-06T21:13:42.992Z,21.10
2023-01-06T21:16:09.881Z,20.10
2023-01-06T21:18:36.766Z,20.80
2023-01-06T21:21:03.745Z,20.80
2023-01-06T21:23:30.663Z,20.50
2023-01-06T21:25:57.529Z,22.30
2023-01-06T21:28:24.400Z,20.30
2023-01-06T21:30:51.289Z,20.50
2023-01-06T21:33:19.926Z,21.00
2023-01-06T21:35:48.306Z,21.50
2023-01-06T21:38:15.190Z,22.60
2023-01-06T21:40:42.324Z,21.20
2023-01-06T21:43:09.228Z,19.50
2023-01-06T21:45:43.037Z,18.50
2023-01-06T21:48:12.350Z,18.70
2023-01-06T21:50:45.000Z,17.10
2023-01-06T21:53:13.127Z,18.10
2023-01-06T21:55:41.369Z,21.10
2023-01-06T21:58:08.490Z,19.30
2023-01-06T22:00:35.352Z,20.60
2023-01-06T22:03:02.288Z,22.10
2023-01-06T22:05:29.265Z,22.20
2023-01-06T22:07:56.387Z,19.80
2023-01-06T22:10:25.348Z,22.80
2023-01-06T22:12:55.362Z,19.70
2023-01-06T22:15:22.774Z,21.70
2023-01-06T22:17:50.381Z,23.20
2023-01-06T22:20:17.941Z,22.00
2023-01-06T22:22:45.712Z,20.30
2023-01-06T22:25:12.695Z,22.90
2023-01-06T22:27:39.665Z,23.30
2023-01-06T22:30:07.371Z,22.20
2023-01-06T22:32:46.599Z,24.20
2023-01-06T22:35:15.787Z,23.30
2023-01-06T22:37:43.167Z,25.50
2023-01-06T22:40:12.124Z,24.90
2023-01-06T22:42:39.377Z,26.40
2023-01-06T22:45:07.461Z,27.20
2023-01-06T22:47:34.386Z,26.60
2023-01-06T22:50:02.673Z,28.90
2023-01-06T22:52:29.942Z,26.70
2023-01-06T22:54:56.823Z,27.70
2023-01-06T22:57:23.863Z,27.20
2023-01-06T22:59:50.718Z,25.40
2023-01-06T23:02:17.791Z,26.70
2023-01-06T23:04:44.797Z,21.30
2023-01-06T23:07:11.902Z,22.40
2023-01-06T23:09:38.900Z,22.10
2023-01-06T23:12:06.152Z,19.30
2023-01-06T23:14:33.048Z,19.00
2023-01-06T23:16:59.971Z,19.10
2023-01-06T23:19:26.949Z,22.00
2023-01-06T23:21:54.513Z,22.70
2023-01-06T23:24:21.479Z,25.50
2023-01-06T23:26:48.800Z,27.50
2023-01-06T23:29:15.938Z,25.60
2023-01-06T23:31:45.414Z,26.50
2023-01-06T23:34:16.950Z,28.00
2023-01-06T23:36:44.749Z,28.80
2023-01-06T23:39:16.944Z,26.30
2023-01-06T23:41:44.275Z,25.10
2023-01-06T23:44:19.092Z,24.20
2023-01-06T23:46:47.228Z,25.60
2023-01-06T23:49:17.023Z,24.10
2023-01-06T23:51:44.715Z,25.90
2023-01-06T23:54:12.715Z,26.10
2023-01-06T23:56:40.189Z,30.40
2023-01-06T23:59:12.584Z,28.70
